Time;durP1;ratioP1;P1;durP2;ratioP2;P2;SDS_P1;SDS_P2;PMS_P1;PMS_P2;Temp;Humidity;BMP_temperature;BMP_pressure;BME280_temperature;BME280_humidity;BME280_pressure;Samples;Min_cycle;Max_cycle;Signal;HPM_P1;HPM_P2
2021/07/30 00:02:24;;;;;;;14.55;5.63;;;14.30;84.10;;;;;;4966873;28;20122;-53
2021/07/30 00:04:50;;;;;;;12.50;5.22;;;14.30;84.30;;;;;;4959887;28;20114;-51
2021/07/30 00:07:15;;;;;;;11.60;5.93;;;14.30;84.30;;;;;;4993229;28;20077;-51
2021/07/30 00:09:41;;;;;;;11.60;5.63;;;14.30;84.40;;;;;;4994948;28;20626;-50
2021/07/30 00:12:07;;;;;;;11.77;5.80;;;14.30;84.50;;;;;;4985650;28;20073;-50
2021/07/30 00:14:33;;;;;;;12.80;5.57;;;14.30;84.60;;;;;;4990722;28;20100;-50
2021/07/30 00:17:02;;;;;;;12.27;5.55;;;14.20;84.50;;;;;;4992013;28;20053;-52
2021/07/30 00:19:28;;;;;;;12.70;6.32;;;14.20;84.70;;;;;;4985253;28;20050;-51
2021/07/30 00:21:55;;;;;;;17.52;6.43;;;14.20;84.90;;;;;;4993887;28;20068;-48
2021/07/30 00:24:21;;;;;;;12.88;6.18;;;14.20;84.70;;;;;;4996511;28;20378;-52
2021/07/30 00:26:48;;;;;;;14.75;6.25;;;14.10;84.70;;;;;;4993551;28;20121;-51
2021/07/30 00:29:14;;;;;;;11.80;5.88;;;14.10;84.80;;;;;;4983764;28;20466;-51
2021/07/30 00:31:41;;;;;;;14.63;6.03;;;14.10;84.90;;;;;;4994785;28;20043;-52
2021/07/30 00:34:07;;;;;;;15.45;6.20;;;14.10;85.10;;;;;;4994762;28;20384;-51
2021/07/30 00:36:33;;;;;;;14.48;6.38;;;14.00;85.50;;;;;;4995047;28;20042;-52
2021/07/30 00:38:59;;;;;;;14.93;6.18;;;14.00;85.10;;;;;;4995363;28;20042;-49
2021/07/30 00:41:26;;;;;;;13.30;6.22;;;14.00;85.30;;;;;;4995327;28;20549;-53
2021/07/30 00:43:52;;;;;;;16.83;6.55;;;13.90;85.40;;;;;;4978435;28;20054;-52
2021/07/30 00:46:19;;;;;;;15.88;5.93;;;13.90;85.60;;;;;;4993857;28;20053;-49
2021/07/30 00:48:45;;;;;;;15.95;6.80;;;13.90;85.80;;;;;;4991519;28;20057;-53
2021/07/30 00:51:12;;;;;;;17.88;7.72;;;13.90;85.80;;;;;;5002852;28;20069;-51
2021/07/30 00:53:39;;;;;;;12.60;6.63;;;13.80;85.90;;;;;;4969114;28;21511;-48
2021/07/30 00:56:05;;;;;;;13.98;6.57;;;13.80;85.90;;;;;;4995646;28;20042;-53
2021/07/30 00:58:31;;;;;;;16.08;6.68;;;13.80;85.90;;;;;;4996398;28;20517;-51
2021/07/30 01:01:01;;;;;;;19.10;7.57;;;13.80;86.20;;;;;;4991205;28;20068;-52
2021/07/30 01:03:28;;;;;;;13.85;7.22;;;13.80;86.30;;;;;;4962732;28;20714;-52
2021/07/30 01:05:58;;;;;;;14.93;7.53;;;13.80;86.40;;;;;;4981994;28;20105;-50
2021/07/30 01:08:27;;;;;;;16.45;7.10;;;13.80;86.50;;;;;;4993986;28;20225;-51
2021/07/30 01:10:54;;;;;;;14.50;6.78;;;13.70;86.60;;;;;;4989094;28;20042;-48
2021/07/30 01:13:19;;;;;;;17.60;7.60;;;13.70;86.70;;;;;;4976384;28;20082;-49
2021/07/30 01:15:46;;;;;;;16.10;7.53;;;13.70;86.70;;;;;;4978565;28;20070;-53
2021/07/30 01:18:12;;;;;;;17.15;7.55;;;13.70;86.90;;;;;;4969895;28;20038;-50
2021/07/30 01:20:41;;;;;;;16.30;7.80;;;13.60;86.90;;;;;;4984843;28;20049;-52
2021/07/30 01:23:09;;;;;;;17.80;7.13;;;13.60;87.20;;;;;;4991737;28;20050;-48
2021/07/30 01:25:35;;;;;;;16.40;7.90;;;13.60;87.40;;;;;;4994217;28;20050;-51
2021/07/30 01:28:01;;;;;;;14.77;7.63;;;13.60;87.50;;;;;;4988984;28;20038;-50
2021/07/30 01:30:26;;;;;;;15.82;7.35;;;13.60;87.60;;;;;;4984988;28;20422;-49
2021/07/30 01:32:53;;;;;;;12.77;7.40;;;13.50;88.00;;;;;;4989277;28;20051;-50
2021/07/30 01:35:20;;;;;;;16.13;7.47;;;13.50;87.80;;;;;;4943782;28;20073;-48
2021/07/30 01:37:46;;;;;;;14.48;8.27;;;13.60;87.80;;;;;;4982978;28;20035;-49
2021/07/30 01:40:12;;;;;;;17.88;8.38;;;13.50;87.80;;;;;;4988254;28;20076;-52
2021/07/30 01:42:39;;;;;;;16.88;8.23;;;13.50;87.80;;;;;;4991455;28;20069;-48
2021/07/30 01:45:06;;;;;;;14.90;7.85;;;13.50;87.80;;;;;;4994445;28;20043;-51
2021/07/30 01:47:34;;;;;;;16.15;7.75;;;13.50;88.00;;;;;;4987548;28;20050;-52
2021/07/30 01:50:00;;;;;;;19.40;8.23;;;13.50;88.10;;;;;;4991728;28;20118;-51
2021/07/30 01:52:26;;;;;;;16.83;8.80;;;13.50;88.20;;;;;;4991266;28;20051;-53
2021/07/30 01:54:51;;;;;;;16.30;8.18;;;13.50;88.30;;;;;;4994135;28;20419;-51
2021/07/30 01:57:18;;;;;;;18.73;8.63;;;13.50;88.40;;;;;;4993810;28;20446;-48
2021/07/30 01:59:46;;;;;;;19.42;8.60;;;13.50;88.50;;;;;;5005556;28;20053;-51
2021/07/30 02:02:21;;;;;;;18.65;8.55;;;13.40;88.70;;;;;;4977231;28;20053;-51
2021/07/30 02:04:47;;;;;;;16.13;8.15;;;13.40;89.30;;;;;;4988460;28;20034;-51
2021/07/30 02:07:18;;;;;;;17.60;8.85;;;13.40;89.20;;;;;;4985229;28;20088;-47
2021/07/30 02:09:44;;;;;;;16.45;9.07;;;13.40;89.40;;;;;;4993140;28;20046;-51
2021/07/30 02:12:10;;;;;;;18.38;9.18;;;13.40;89.40;;;;;;4974198;28;20057;-50
2021/07/30 02:14:36;;;;;;;15.35;8.55;;;13.40;89.70;;;;;;4992457;28;20049;-47
2021/07/30 02:17:02;;;;;;;17.52;8.88;;;13.40;89.70;;;;;;4992625;28;20121;-49
2021/07/30 02:19:28;;;;;;;20.95;8.65;;;13.40;89.90;;;;;;4993201;28;20046;-48
2021/07/30 02:21:55;;;;;;;17.42;9.10;;;13.40;90.00;;;;;;4967321;28;20054;-48
2021/07/30 02:24:21;;;;;;;17.48;9.05;;;13.40;90.00;;;;;;5002069;28;20145;-52
2021/07/30 02:26:48;;;;;;;18.10;8.85;;;13.40;90.10;;;;;;4974155;28;20042;-50
2021/07/30 02:29:14;;;;;;;20.55;9.23;;;13.40;90.10;;;;;;4986386;28;20045;-53
2021/07/30 02:31:40;;;;;;;21.65;9.07;;;13.40;90.20;;;;;;4991577;28;20049;-53
2021/07/30 02:34:10;;;;;;;15.13;9.27;;;13.40;90.30;;;;;;4972076;28;20089;-53
2021/07/30 02:36:36;;;;;;;20.67;9.38;;;13.40;90.30;;;;;;4989554;28;20053;-51
2021/07/30 02:39:03;;;;;;;19.50;9.48;;;13.40;90.40;;;;;;4979380;28;20094;-54
2021/07/30 02:41:32;;;;;;;17.15;9.32;;;13.40;90.40;;;;;;4990625;28;20038;-52
2021/07/30 02:43:58;;;;;;;20.38;9.00;;;13.40;90.50;;;;;;4972350;28;20344;-51
2021/07/30 02:46:25;;;;;;;14.32;8.07;;;13.40;90.50;;;;;;4964559;28;20073;-52
2021/07/30 02:48:51;;;;;;;17.55;9.10;;;13.30;90.60;;;;;;4994040;28;20235;-51
2021/07/30 02:51:18;;;;;;;15.07;8.65;;;13.30;90.60;;;;;;4991696;28;20042;-52
2021/07/30 02:53:44;;;;;;;20.15;9.02;;;13.30;90.60;;;;;;4995495;28;20046;-52
2021/07/30 02:56:10;;;;;;;19.40;9.40;;;13.30;90.70;;;;;;4991614;28;20058;-51
2021/07/30 02:58:40;;;;;;;19.38;9.13;;;13.30;90.70;;;;;;4995361;28;20551;-52
2021/07/30 03:01:06;;;;;;;20.33;9.30;;;13.30;90.70;;;;;;4978771;28;20076;-50
2021/07/30 03:03:32;;;;;;;19.52;9.18;;;13.30;90.80;;;;;;4995564;28;20081;-52
2021/07/30 03:05:59;;;;;;;18.45;9.15;;;13.30;90.90;;;;;;4999945;28;20046;-50
2021/07/30 03:08:29;;;;;;;17.08;9.35;;;13.30;90.90;;;;;;4998251;28;20030;-51
2021/07/30 03:10:57;;;;;;;19.05;9.75;;;13.30;90.90;;;;;;4964721;28;20090;-52
2021/07/30 03:13:25;;;;;;;19.98;9.40;;;13.30;90.80;;;;;;4978879;28;20051;-52
2021/07/30 03:15:55;;;;;;;19.33;9.18;;;13.30;90.90;;;;;;4971228;28;20049;-52
2021/07/30 03:18:21;;;;;;;24.48;10.30;;;13.30;90.90;;;;;;4991032;28;20100;-53
2021/07/30 03:20:47;;;;;;;20.48;9.68;;;13.30;90.90;;;;;;4996161;28;20132;-52
2021/07/30 03:23:13;;;;;;;15.77;9.25;;;13.30;90.90;;;;;;4982842;28;20066;-49
2021/07/30 03:25:41;;;;;;;19.38;9.65;;;13.30;90.90;;;;;;4993423;28;20046;-52
2021/07/30 03:28:07;;;;;;;19.42;8.80;;;13.30;91.00;;;;;;4984140;28;20116;-52
2021/07/30 03:30:47;;;;;;;19.63;9.38;;;13.30;91.00;;;;;;4981117;28;20089;-50
2021/07/30 03:33:14;;;;;;;20.92;9.45;;;13.30;91.00;;;;;;4989639;28;20045;-51
2021/07/30 03:35:41;;;;;;;17.98;9.10;;;13.30;91.00;;;;;;4988302;28;20045;-51
2021/07/30 03:38:07;;;;;;;19.08;9.38;;;13.30;91.00;;;;;;4983621;28;20046;-52
2021/07/30 03:40:33;;;;;;;16.02;9.00;;;13.20;91.00;;;;;;4981917;28;20058;-53
2021/07/30 03:42:59;;;;;;;18.42;9.63;;;13.20;91.00;;;;;;4987095;28;20169;-53
2021/07/30 03:45:26;;;;;;;21.27;9.60;;;13.20;91.00;;;;;;4983352;28;20130;-50
2021/07/30 03:47:53;;;;;;;19.38;9.85;;;13.20;91.00;;;;;;4972245;28;20053;-53
2021/07/30 03:50:18;;;;;;;20.48;9.27;;;13.20;91.10;;;;;;4987343;28;20050;-48
2021/07/30 03:52:44;;;;;;;16.13;9.02;;;13.20;91.00;;;;;;4993118;28;20046;-51
2021/07/30 03:55:10;;;;;;;16.40;9.18;;;13.20;91.00;;;;;;4986449;28;20073;-49
2021/07/30 03:57:38;;;;;;;19.85;9.40;;;13.20;91.00;;;;;;4995592;28;20043;-49
2021/07/30 04:00:07;;;;;;;17.48;9.30;;;13.20;91.00;;;;;;4977708;28;20038;-50
2021/07/30 04:02:33;;;;;;;19.88;10.30;;;13.20;91.10;;;;;;4993557;28;20105;-48
2021/07/30 04:04:59;;;;;;;14.25;8.82;;;13.20;91.10;;;;;;4977092;28;20046;-51
2021/07/30 04:07:29;;;;;;;16.83;8.13;;;13.20;91.10;;;;;;4970147;28;20046;-50
2021/07/30 04:09:55;;;;;;;14.73;9.20;;;13.20;91.10;;;;;;5003815;28;20042;-49
2021/07/30 04:12:24;;;;;;;14.88;8.95;;;13.20;91.10;;;;;;4994498;28;20042;-51
2021/07/30 04:14:51;;;;;;;17.58;8.88;;;13.20;91.10;;;;;;4997193;28;20049;-53
2021/07/30 04:17:17;;;;;;;18.33;9.35;;;13.20;91.10;;;;;;4992303;28;20035;-52
2021/07/30 04:19:44;;;;;;;19.75;9.45;;;13.20;91.10;;;;;;4987151;28;20125;-53
2021/07/30 04:22:11;;;;;;;19.25;9.10;;;13.30;91.20;;;;;;4996616;28;20050;-52
2021/07/30 04:24:38;;;;;;;19.48;9.27;;;13.30;91.10;;;;;;5003612;28;20127;-51
2021/07/30 04:27:08;;;;;;;17.55;8.70;;;13.30;91.10;;;;;;5002123;28;20053;-51
2021/07/30 04:29:41;;;;;;;17.90;9.15;;;13.30;91.10;;;;;;4981941;28;20062;-52
2021/07/30 04:32:09;;;;;;;16.75;9.38;;;13.30;91.20;;;;;;4997322;28;20486;-54
2021/07/30 04:34:41;;;;;;;18.17;8.50;;;13.30;91.20;;;;;;4993342;28;20054;-53
2021/07/30 04:37:07;;;;;;;17.70;8.70;;;13.30;91.20;;;;;;4994304;28;20057;-53
2021/07/30 04:39:36;;;;;;;16.33;9.02;;;13.30;91.20;;;;;;4989097;28;20046;-51
2021/07/30 04:42:03;;;;;;;18.00;8.63;;;13.40;91.20;;;;;;4986993;28;20134;-53
2021/07/30 04:44:32;;;;;;;20.60;8.43;;;13.40;91.20;;;;;;4976086;28;20058;-51
2021/07/30 04:46:59;;;;;;;15.88;8.32;;;13.40;91.20;;;;;;4993138;28;20549;-51
2021/07/30 04:49:25;;;;;;;16.48;8.27;;;13.40;91.10;;;;;;4998514;28;20051;-51
2021/07/30 04:51:50;;;;;;;16.55;8.75;;;13.40;91.20;;;;;;4997852;28;20235;-53
2021/07/30 04:54:16;;;;;;;17.00;8.32;;;13.50;91.20;;;;;;4990825;28;21419;-52
2021/07/30 04:56:42;;;;;;;14.65;8.75;;;13.50;91.10;;;;;;4995158;28;20042;-53
2021/07/30 04:59:08;;;;;;;15.70;8.25;;;13.50;91.20;;;;;;4998947;28;20096;-50
2021/07/30 05:01:43;;;;;;;14.88;8.85;;;13.50;91.20;;;;;;4995464;28;20181;-50
2021/07/30 05:04:12;;;;;;;17.33;8.40;;;13.60;91.20;;;;;;5000160;28;20070;-51
2021/07/30 05:06:38;;;;;;;20.88;8.80;;;13.60;91.20;;;;;;4965549;28;20042;-49
2021/07/30 05:09:04;;;;;;;13.27;8.07;;;13.70;91.10;;;;;;4991065;28;20041;-50
2021/07/30 05:11:30;;;;;;;16.20;8.30;;;13.70;91.10;;;;;;4991031;28;20030;-53
2021/07/30 05:13:55;;;;;;;18.85;8.77;;;13.80;91.10;;;;;;4997291;28;20038;-52
2021/07/30 05:16:22;;;;;;;20.13;9.02;;;13.80;91.00;;;;;;4996477;28;20100;-49
2021/07/30 05:18:48;;;;;;;20.10;8.68;;;13.90;91.00;;;;;;4997719;28;20034;-53
2021/07/30 05:21:14;;;;;;;14.68;8.55;;;14.00;91.00;;;;;;4974595;28;20066;-49
2021/07/30 05:23:40;;;;;;;15.02;8.57;;;14.10;90.90;;;;;;4992994;28;20062;-53
2021/07/30 05:26:07;;;;;;;18.48;8.50;;;14.10;90.90;;;;;;4995333;28;20049;-52
2021/07/30 05:28:36;;;;;;;17.77;8.77;;;14.20;90.80;;;;;;4997573;28;20050;-52
2021/07/30 05:31:05;;;;;;;15.82;8.38;;;14.20;90.80;;;;;;4968608;28;20034;-51
2021/07/30 05:33:32;;;;;;;17.48;9.30;;;14.30;90.80;;;;;;4998169;28;20057;-53
2021/07/30 05:35:58;;;;;;;16.45;8.63;;;14.30;90.80;;;;;;4996689;28;20077;-52
2021/07/30 05:38:24;;;;;;;18.77;9.45;;;14.30;90.80;;;;;;4991704;28;20479;-53
2021/07/30 05:40:50;;;;;;;17.98;8.73;;;14.40;90.70;;;;;;4993673;28;20049;-53
2021/07/30 05:43:16;;;;;;;12.18;7.90;;;14.40;90.70;;;;;;4996916;28;20038;-54
2021/07/30 05:45:44;;;;;;;14.85;8.52;;;14.40;90.60;;;;;;4978784;28;20096;-50
2021/07/30 05:48:12;;;;;;;14.55;8.18;;;14.50;90.60;;;;;;4970097;28;20049;-53
2021/07/30 05:50:38;;;;;;;14.52;8.40;;;14.50;90.60;;;;;;4979921;28;20050;-51
2021/07/30 05:53:03;;;;;;;16.08;8.65;;;14.50;90.60;;;;;;4992929;28;20090;-54
2021/07/30 05:55:29;;;;;;;17.83;8.50;;;14.50;90.60;;;;;;4987412;28;20067;-53
2021/07/30 05:57:58;;;;;;;19.50;8.43;;;14.50;90.60;;;;;;4991083;28;20034;-53
2021/07/30 06:00:28;;;;;;;18.70;9.80;;;14.60;90.60;;;;;;4978500;28;20061;-52
2021/07/30 06:02:56;;;;;;;16.88;8.50;;;14.70;90.70;;;;;;4998754;28;20046;-53
2021/07/30 06:05:23;;;;;;;17.02;8.95;;;14.70;90.60;;;;;;4983308;28;20077;-49
2021/07/30 06:07:49;;;;;;;17.10;8.48;;;14.80;90.40;;;;;;4950489;28;20054;-54
2021/07/30 06:10:16;;;;;;;16.25;7.95;;;15.00;90.20;;;;;;4978052;28;20050;-54
2021/07/30 06:12:41;;;;;;;16.10;8.80;;;15.00;90.10;;;;;;4977089;28;20129;-50
2021/07/30 06:15:08;;;;;;;15.15;8.57;;;15.10;90.00;;;;;;4993918;28;20066;-52
2021/07/30 06:17:35;;;;;;;15.98;8.25;;;15.10;89.90;;;;;;4971556;28;20077;-49
2021/07/30 06:20:00;;;;;;;21.45;8.85;;;15.20;89.60;;;;;;5006330;28;20145;-51
2021/07/30 06:22:27;;;;;;;15.75;7.95;;;15.30;89.50;;;;;;4999898;28;20081;-48
2021/07/30 06:24:52;;;;;;;16.00;8.45;;;15.30;89.60;;;;;;4999245;28;20108;-48
2021/07/30 06:27:19;;;;;;;16.38;8.82;;;15.40;89.70;;;;;;4992655;28;20471;-48
2021/07/30 06:29:45;;;;;;;21.67;8.68;;;15.50;89.80;;;;;;4994232;28;20089;-50
2021/07/30 06:32:14;;;;;;;14.88;8.23;;;15.50;89.70;;;;;;4991652;28;20529;-51
2021/07/30 06:34:40;;;;;;;19.98;8.55;;;15.60;89.80;;;;;;4989364;28;20059;-48
2021/07/30 06:37:07;;;;;;;16.13;8.75;;;15.60;89.80;;;;;;4980812;28;20387;-49
2021/07/30 06:39:33;;;;;;;16.02;8.38;;;15.60;89.90;;;;;;4992872;28;20127;-51
2021/07/30 06:41:58;;;;;;;18.60;8.57;;;15.60;89.70;;;;;;4987497;28;20137;-48
2021/07/30 06:44:24;;;;;;;15.05;8.07;;;15.70;89.60;;;;;;4996119;28;20042;-48
2021/07/30 06:46:50;;;;;;;12.93;7.82;;;15.70;89.40;;;;;;4989058;28;20086;-49
2021/07/30 06:49:17;;;;;;;16.05;8.13;;;15.70;89.30;;;;;;4982105;28;20055;-49
2021/07/30 06:51:44;;;;;;;17.83;8.82;;;15.80;89.30;;;;;;4992280;28;20474;-51
2021/07/30 06:54:12;;;;;;;19.42;8.43;;;15.90;89.30;;;;;;4978693;28;20609;-51
2021/07/30 06:56:37;;;;;;;17.73;8.13;;;15.90;89.10;;;;;;4987980;28;20038;-50
2021/07/30 06:59:03;;;;;;;16.73;8.43;;;15.90;89.10;;;;;;4984444;28;20031;-50
2021/07/30 07:01:30;;;;;;;14.00;7.65;;;16.00;88.90;;;;;;4983021;28;20069;-52
2021/07/30 07:04:00;;;;;;;14.57;8.25;;;16.00;89.60;;;;;;4960310;28;20038;-51
2021/07/30 07:06:29;;;;;;;19.30;8.18;;;16.10;88.70;;;;;;4950552;28;20043;-52
2021/07/30 07:08:56;;;;;;;16.00;8.02;;;16.10;88.60;;;;;;4964240;28;20473;-50
2021/07/30 07:11:25;;;;;;;16.83;7.82;;;16.10;88.30;;;;;;4985827;28;20077;-51
2021/07/30 07:13:53;;;;;;;17.92;7.80;;;16.20;88.30;;;;;;4962527;28;20051;-50
2021/07/30 07:16:20;;;;;;;18.83;8.10;;;16.30;88.30;;;;;;4982337;28;20058;-47
2021/07/30 07:18:46;;;;;;;21.85;7.95;;;16.40;88.20;;;;;;4946738;28;20047;-54
2021/07/30 07:21:15;;;;;;;14.15;8.05;;;16.40;88.10;;;;;;4982645;28;20042;-47
2021/07/30 07:23:42;;;;;;;17.10;8.63;;;16.50;88.10;;;;;;4963043;28;20266;-49
2021/07/30 07:26:11;;;;;;;21.48;7.82;;;16.60;88.00;;;;;;4989431;28;20041;-51
2021/07/30 07:28:37;;;;;;;16.27;7.43;;;16.60;87.70;;;;;;4980826;28;20031;-51
2021/07/30 07:31:02;;;;;;;22.23;7.63;;;16.80;87.70;;;;;;4985292;28;20094;-53
2021/07/30 07:33:29;;;;;;;15.68;6.93;;;16.80;87.30;;;;;;4985259;28;20045;-54
2021/07/30 07:35:55;;;;;;;12.68;7.13;;;16.90;86.70;;;;;;4969725;28;20038;-50
2021/07/30 07:38:20;;;;;;;15.20;7.97;;;16.90;86.40;;;;;;4985798;28;20043;-48
2021/07/30 07:40:46;;;;;;;17.05;7.90;;;16.90;86.30;;;;;;4985641;28;20727;-48
2021/07/30 07:43:12;;;;;;;16.15;7.57;;;16.90;86.30;;;;;;4989976;28;20490;-48
2021/07/30 07:45:37;;;;;;;16.50;7.68;;;16.90;86.40;;;;;;4980612;28;20068;-51
2021/07/30 07:48:04;;;;;;;16.65;7.45;;;17.00;86.40;;;;;;4981767;28;20133;-51
2021/07/30 07:50:30;;;;;;;13.25;6.90;;;17.10;86.50;;;;;;4982958;28;20218;-52
2021/07/30 07:52:55;;;;;;;15.48;7.05;;;17.20;86.40;;;;;;4976012;28;20490;-53
2021/07/30 07:55:21;;;;;;;16.60;7.13;;;17.30;86.30;;;;;;4984720;28;20046;-51
2021/07/30 07:57:47;;;;;;;16.33;7.80;;;17.30;86.20;;;;;;4989912;28;20769;-52
2021/07/30 08:00:13;;;;;;;17.85;6.93;;;17.40;85.80;;;;;;4986933;28;20042;-50
2021/07/30 08:02:38;;;;;;;12.18;7.13;;;17.40;86.00;;;;;;4981877;28;20034;-51
2021/07/30 08:05:04;;;;;;;15.27;7.00;;;17.40;86.30;;;;;;4989250;28;20458;-47
2021/07/30 08:07:32;;;;;;;16.52;7.57;;;17.50;86.50;;;;;;4975420;28;20486;-50
2021/07/30 08:09:59;;;;;;;16.77;7.10;;;17.60;86.20;;;;;;4968706;28;20050;-52
2021/07/30 08:12:25;;;;;;;15.60;6.53;;;17.70;86.10;;;;;;4986652;28;20097;-49
2021/07/30 08:14:51;;;;;;;19.02;7.07;;;17.80;85.30;;;;;;4997955;28;20097;-51
2021/07/30 08:17:18;;;;;;;17.98;6.53;;;17.80;84.80;;;;;;4973750;28;20042;-48
2021/07/30 08:19:50;;;;;;;15.02;6.32;;;17.80;84.70;;;;;;4973387;28;20059;-50
2021/07/30 08:22:16;;;;;;;13.25;7.05;;;17.90;84.90;;;;;;4995860;28;20073;-53
2021/07/30 08:24:42;;;;;;;17.73;6.97;;;18.00;85.20;;;;;;4995289;28;20136;-50
2021/07/30 08:27:10;;;;;;;16.10;6.68;;;18.10;84.90;;;;;;4993500;28;20101;-52
2021/07/30 08:29:36;;;;;;;14.48;6.10;;;18.20;84.20;;;;;;4990668;28;20145;-52
2021/07/30 08:32:01;;;;;;;13.85;5.95;;;18.20;83.30;;;;;;4984234;28;20066;-55
2021/07/30 08:34:27;;;;;;;12.85;6.20;;;18.30;82.10;;;;;;4983273;28;20554;-54
2021/07/30 08:36:53;;;;;;;13.32;6.43;;;18.20;81.30;;;;;;4986479;28;20066;-54
2021/07/30 08:39:19;;;;;;;12.30;5.85;;;18.20;81.30;;;;;;4970920;28;20092;-52
2021/07/30 08:41:49;;;;;;;11.73;6.15;;;18.30;81.30;;;;;;4975080;28;20095;-52
2021/07/30 08:44:15;;;;;;;11.38;5.82;;;18.30;81.30;;;;;;4976812;28;20031;-51
2021/07/30 08:46:43;;;;;;;15.68;5.55;;;18.40;81.00;;;;;;4976849;28;20054;-48
2021/07/30 08:49:10;;;;;;;13.13;5.85;;;18.40;80.60;;;;;;4993803;28;20050;-52
2021/07/30 08:51:42;;;;;;;12.88;6.15;;;18.60;80.10;;;;;;4994180;28;20387;-52
2021/07/30 08:54:11;;;;;;;12.20;5.32;;;18.70;80.10;;;;;;4983323;28;20035;-51
2021/07/30 08:56:38;;;;;;;10.57;5.03;;;18.80;80.00;;;;;;4964159;28;20399;-49
2021/07/30 08:59:04;;;;;;;10.25;5.05;;;18.90;79.10;;;;;;4989920;28;20039;-52
2021/07/30 09:01:31;;;;;;;10.35;5.47;;;18.90;78.40;;;;;;4993287;28;20498;-50
2021/07/30 09:03:57;;;;;;;10.18;5.30;;;19.00;76.50;;;;;;4996550;28;20034;-49
2021/07/30 09:06:24;;;;;;;9.32;4.55;;;19.10;75.70;;;;;;4981621;28;20411;-50
2021/07/30 09:09:01;;;;;;;10.95;4.47;;;19.10;75.10;;;;;;4995597;28;20050;-51
2021/07/30 09:11:28;;;;;;;9.43;4.60;;;19.20;74.10;;;;;;4997059;28;20066;-53
2021/07/30 09:13:55;;;;;;;8.90;4.65;;;19.20;73.80;;;;;;4996365;28;20045;-53
2021/07/30 09:16:22;;;;;;;13.93;4.85;;;19.20;74.10;;;;;;4990842;28;20181;-53
2021/07/30 09:18:47;;;;;;;10.52;4.50;;;19.30;74.40;;;;;;4988500;28;20041;-52
2021/07/30 09:21:30;;;;;;;8.25;4.10;;;19.40;73.70;;;;;;4984830;28;20219;-54
2021/07/30 09:24:01;;;;;;;12.13;4.40;;;19.50;74.40;;;;;;4995929;28;20038;-51
2021/07/30 09:26:28;;;;;;;12.00;4.30;;;19.50;73.10;;;;;;4997302;28;20053;-48
2021/07/30 09:28:59;;;;;;;11.43;4.30;;;19.50;72.20;;;;;;4980219;28;20038;-48
2021/07/30 09:31:38;;;;;;;9.85;4.60;;;19.40;72.60;;;;;;4997059;28;20112;-49
2021/07/30 09:34:15;;;;;;;11.23;4.85;;;19.40;73.10;;;;;;4979924;28;20089;-48
2021/07/30 09:36:53;;;;;;;12.15;5.20;;;19.40;73.30;;;;;;4987668;28;20030;-53
2021/07/30 09:39:41;;;;;;;10.75;4.70;;;19.50;73.80;;;;;;4979746;28;20051;-54
2021/07/30 09:42:12;;;;;;;12.90;4.90;;;19.60;74.70;;;;;;4981973;28;20492;-53
2021/07/30 09:44:47;;;;;;;13.00;5.78;;;19.70;75.00;;;;;;4983603;28;20047;-52
2021/07/30 09:47:21;;;;;;;10.10;5.00;;;19.90;75.00;;;;;;4983038;28;20042;-54
2021/07/30 09:49:57;;;;;;;10.70;4.47;;;20.20;74.10;;;;;;4978926;28;20108;-48
2021/07/30 09:52:26;;;;;;;12.35;5.25;;;20.40;73.60;;;;;;4983371;28;20057;-49
2021/07/30 09:55:03;;;;;;;10.65;4.50;;;20.50;73.90;;;;;;4982193;28;20039;-54
2021/07/30 09:57:42;;;;;;;7.75;4.30;;;20.60;73.00;;;;;;4970244;28;20574;-52
2021/07/30 10:00:13;;;;;;;10.85;4.63;;;20.70;72.40;;;;;;4982725;28;20109;-52
2021/07/30 10:02:42;;;;;;;11.75;4.40;;;20.80;71.40;;;;;;4994632;28;20483;-51
2021/07/30 10:05:12;;;;;;;12.27;4.25;;;20.80;70.70;;;;;;4995179;28;20042;-53
2021/07/30 10:07:42;;;;;;;12.55;4.07;;;20.80;70.90;;;;;;4973641;28;20047;-53
2021/07/30 10:10:22;;;;;;;11.27;4.22;;;20.70;71.60;;;;;;4969702;28;20106;-52
2021/07/30 10:12:54;;;;;;;9.82;4.50;;;20.80;71.70;;;;;;4980262;28;20026;-51
2021/07/30 10:15:21;;;;;;;9.50;3.90;;;20.70;71.10;;;;;;4977839;28;20039;-54
2021/07/30 10:17:47;;;;;;;9.07;3.83;;;20.70;71.40;;;;;;4979296;28;20058;-53
2021/07/30 10:20:15;;;;;;;9.40;4.03;;;20.80;71.90;;;;;;4965725;28;20133;-53
2021/07/30 10:22:51;;;;;;;8.93;3.90;;;20.90;70.90;;;;;;4984087;28;20046;-54
2021/07/30 10:25:41;;;;;;;9.68;3.60;;;21.00;71.40;;;;;;4988430;28;20030;-54
2021/07/30 10:28:22;;;;;;;8.13;3.70;;;21.10;71.20;;;;;;4981547;28;20221;-52
2021/07/30 10:30:58;;;;;;;10.15;4.20;;;21.10;71.40;;;;;;4977954;28;20042;-55
2021/07/30 10:33:31;;;;;;;9.15;3.80;;;21.10;69.80;;;;;;4991851;28;20038;-54
2021/07/30 10:35:58;;;;;;;8.25;4.30;;;21.10;69.80;;;;;;4997496;28;20042;-54
2021/07/30 10:38:24;;;;;;;9.43;4.05;;;21.00;70.40;;;;;;4992154;28;20069;-53
2021/07/30 10:41:08;;;;;;;9.10;4.40;;;21.00;71.30;;;;;;4980693;28;20038;-54
2021/07/30 10:43:50;;;;;;;10.70;4.65;;;21.00;71.70;;;;;;4983550;28;20055;-53
2021/07/30 10:46:16;;;;;;;10.02;4.40;;;21.10;72.00;;;;;;4980291;28;20046;-54
2021/07/30 10:48:43;;;;;;;11.40;4.03;;;21.20;71.60;;;;;;4976543;28;20090;-55
2021/07/30 10:51:18;;;;;;;8.27;3.83;;;21.30;71.00;;;;;;4978391;28;20668;-53
2021/07/30 10:54:01;;;;;;;7.97;4.38;;;21.30;70.60;;;;;;4985003;28;20049;-54
2021/07/30 10:56:32;;;;;;;7.88;3.92;;;21.20;69.70;;;;;;4972649;28;21044;-52
2021/07/30 10:59:03;;;;;;;12.57;3.92;;;21.20;69.60;;;;;;4989321;28;20046;-54
2021/07/30 11:01:29;;;;;;;8.02;4.00;;;21.20;69.00;;;;;;4981393;28;20054;-54
2021/07/30 11:04:06;;;;;;;11.25;4.55;;;21.20;69.90;;;;;;4993644;28;20057;-54
2021/07/30 11:06:41;;;;;;;8.50;3.97;;;21.10;71.20;;;;;;4944700;28;20113;-53
2021/07/30 11:09:08;;;;;;;11.90;3.35;;;21.10;71.30;;;;;;4995046;28;20054;-55
2021/07/30 11:11:41;;;;;;;10.30;3.63;;;21.10;71.40;;;;;;4978758;28;20116;-51
2021/07/30 11:14:07;;;;;;;11.95;3.33;;;21.20;70.90;;;;;;4994214;28;20066;-55
2021/07/30 11:16:34;;;;;;;9.38;3.65;;;21.30;71.40;;;;;;4998650;28;20038;-54
2021/07/30 11:19:01;;;;;;;7.13;3.42;;;21.40;69.80;;;;;;4966077;28;20388;-52
2021/07/30 11:21:29;;;;;;;8.23;3.60;;;21.50;70.00;;;;;;4974656;28;20055;-55
2021/07/30 11:23:55;;;;;;;9.07;3.58;;;21.60;69.90;;;;;;4979029;28;20046;-52
2021/07/30 11:26:22;;;;;;;7.30;3.25;;;21.80;70.50;;;;;;4989741;28;20046;-52
2021/07/30 11:28:55;;;;;;;5.82;3.05;;;21.90;69.10;;;;;;4958068;28;20034;-51
2021/07/30 11:31:22;;;;;;;9.75;3.17;;;22.10;69.30;;;;;;4989544;28;20137;-51
2021/07/30 11:33:48;;;;;;;5.22;3.17;;;22.20;69.60;;;;;;4997933;28;20308;-49
2021/07/30 11:36:15;;;;;;;7.10;3.22;;;22.30;68.40;;;;;;4999186;28;20503;-52
2021/07/30 11:38:50;;;;;;;6.75;3.10;;;22.50;68.90;;;;;;4998143;28;20046;-52
2021/07/30 11:41:18;;;;;;;5.75;2.80;;;22.60;64.30;;;;;;4976510;28;20407;-52
2021/07/30 11:44:09;;;;;;;5.65;2.90;;;22.70;62.10;;;;;;4991738;28;20045;-49
2021/07/30 11:46:35;;;;;;;6.32;2.80;;;22.70;62.60;;;;;;4988887;28;20224;-48
2021/07/30 11:49:03;;;;;;;6.45;2.70;;;22.60;62.40;;;;;;4951000;28;20042;-52
2021/07/30 11:51:31;;;;;;;6.78;2.85;;;22.40;62.40;;;;;;4998057;28;20043;-52
2021/07/30 11:53:58;;;;;;;9.90;3.47;;;22.20;63.30;;;;;;4950792;28;20403;-51
2021/07/30 11:56:24;;;;;;;13.15;3.60;;;22.10;64.70;;;;;;4986230;28;20052;-51
2021/07/30 11:58:59;;;;;;;8.27;3.85;;;22.00;65.90;;;;;;4992603;28;20038;-52
2021/07/30 12:01:31;;;;;;;9.93;3.50;;;21.90;65.80;;;;;;5000914;28;20358;-48
2021/07/30 12:04:11;;;;;;;8.65;3.70;;;21.90;66.70;;;;;;4999414;28;20104;-54
2021/07/30 12:06:47;;;;;;;8.15;4.20;;;21.80;67.50;;;;;;4981174;28;20039;-48
2021/07/30 12:09:16;;;;;;;9.02;4.00;;;21.70;67.40;;;;;;4990141;28;20051;-51
2021/07/30 12:11:48;;;;;;;10.88;3.92;;;21.70;67.30;;;;;;4999702;28;20053;-53
2021/07/30 12:14:16;;;;;;;8.75;4.00;;;21.70;68.10;;;;;;4998557;28;20053;-53
2021/07/30 12:16:45;;;;;;;8.27;4.13;;;21.70;68.50;;;;;;4997345;28;20402;-52
2021/07/30 12:19:12;;;;;;;9.55;3.97;;;21.80;69.60;;;;;;4982704;28;20113;-52
2021/07/30 12:22:05;;;;;;;12.77;3.90;;;22.00;69.00;;;;;;4998553;28;20096;-50
2021/07/30 12:24:31;;;;;;;10.00;4.40;;;22.20;69.50;;;;;;4999219;28;20392;-51
2021/07/30 12:26:58;;;;;;;8.93;4.53;;;22.30;68.10;;;;;;4998010;28;20177;-51
2021/07/30 12:29:38;;;;;;;9.27;4.80;;;22.40;66.20;;;;;;4996401;28;20115;-52
2021/07/30 12:32:14;;;;;;;7.18;3.72;;;22.40;67.60;;;;;;4991545;28;20039;-52
2021/07/30 12:34:51;;;;;;;11.50;4.75;;;22.40;68.80;;;;;;4988700;28;20042;-51
2021/07/30 12:37:17;;;;;;;9.00;4.30;;;22.50;66.50;;;;;;5000628;28;20042;-51
2021/07/30 12:39:47;;;;;;;9.90;4.15;;;22.50;67.60;;;;;;5008623;28;20125;-52
2021/07/30 12:42:23;;;;;;;6.32;4.38;;;22.60;68.60;;;;;;4996008;28;20039;-54
2021/07/30 12:45:00;;;;;;;7.50;4.43;;;22.80;67.00;;;;;;4980853;28;20549;-54